Česky Dansk Deutsch English Español Suomi Français Magyar Italiano Nederlands norsk Polski Português svenska Türkçe

 

Het Weer

Corumba (Brazilië)

13:00, 23 augustus 2016 (GMT)

NWNNE
WE
SWSSE
Home            
Corumba Puerto Suarez Robore Campo Grande Aeroporto San Jose De Chiquitos Cuiaba Aeroporto Ponta Pora Intl Mariscal Estigarribia San Ignacio De Velasco Concepcion Nueva Asuncion Concepcion San Javier Viru-Viru Santa Cruz / El Trompillo Camiri Barra Do Garcas Villamontes Asuncion / Aeropuerto Las Lomitas Ascencion De Guarayos Yacuiba Presidente Prudente

Om een weerknop op uw website of weblog te plaatsen, copieer onderstaande code en plak die in uw pagina. In het eerste vakje staat HTML-code, in het tweede vakje UBB-code.


Add to Google

Details

Wind speed:3 bf, 8 kn, 4.1 m/s, 9.2 miles/h, 14.8 km/h
Wind direction:E, 090°
Visibility:Greater than 10000 m, 10 km, 32800 ft, 6.2 miles
Clouds:CAVOC
Temperature:20°C, 68°F
Dew-point:9°C, 48°F
Atmospheric pressure:1020 hPa, 765.1 mmHg, 30.12 inHg, 1.007 atm
Relative humidity:49.1 %
METAR:SBCR 231300Z 09008KT CAVOK 20/09 Q1020

Snelkoppelingen

Actuele weersinformatie van de hele wereld. Voeg locaties toe met het plus (+) symbool. Deze snelkoppelingen kunnen worden toegevoegd aan Google.

Lid van de Technetium groep

website free tracking
StatCounter NetStat W3C Validator

27-10-2020 12:57:19
astro.technetium.be money.technetium.be phote.technetium.be tafeltennistafel.technetium.be www.ligfiets.net